sensor_id;sensor_type;location;lat;lon;timestamp;P1;durP1;ratioP1;P2;durP2;ratioP2
3795;SDS011;1913;50.660;7.834;2023-08-08T00:00:36;6.20;;;3.87;;
3795;SDS011;1913;50.660;7.834;2023-08-08T00:03:01;7.53;;;3.93;;
3795;SDS011;1913;50.660;7.834;2023-08-08T00:05:27;12.63;;;4.67;;
3795;SDS011;1913;50.660;7.834;2023-08-08T00:07:52;6.53;;;4.53;;
3795;SDS011;1913;50.660;7.834;2023-08-08T00:10:17;5.70;;;4.10;;
3795;SDS011;1913;50.660;7.834;2023-08-08T00:12:43;7.30;;;4.60;;
3795;SDS011;1913;50.660;7.834;2023-08-08T00:15:08;10.20;;;4.13;;
3795;SDS011;1913;50.660;7.834;2023-08-08T00:17:34;8.90;;;4.23;;
3795;SDS011;1913;50.660;7.834;2023-08-08T00:20:00;8.30;;;3.80;;
3795;SDS011;1913;50.660;7.834;2023-08-08T00:22:25;9.00;;;4.40;;
3795;SDS011;1913;50.660;7.834;2023-08-08T00:24:50;6.40;;;4.40;;
3795;SDS011;1913;50.660;7.834;2023-08-08T00:27:16;5.67;;;3.70;;
3795;SDS011;1913;50.660;7.834;2023-08-08T00:29:41;5.00;;;4.00;;
3795;SDS011;1913;50.660;7.834;2023-08-08T00:32:06;10.30;;;4.53;;
3795;SDS011;1913;50.660;7.834;2023-08-08T00:34:32;13.10;;;4.53;;
3795;SDS011;1913;50.660;7.834;2023-08-08T00:36:57;8.00;;;3.80;;
3795;SDS011;1913;50.660;7.834;2023-08-08T00:39:22;5.33;;;3.90;;
3795;SDS011;1913;50.660;7.834;2023-08-08T00:41:48;5.33;;;3.93;;
3795;SDS011;1913;50.660;7.834;2023-08-08T00:44:13;8.07;;;4.10;;
3795;SDS011;1913;50.660;7.834;2023-08-08T00:46:39;7.90;;;3.77;;
3795;SDS011;1913;50.660;7.834;2023-08-08T00:49:04;11.50;;;3.97;;
3795;SDS011;1913;50.660;7.834;2023-08-08T00:51:30;9.37;;;3.70;;
3795;SDS011;1913;50.660;7.834;2023-08-08T00:53:55;8.47;;;4.10;;
3795;SDS011;1913;50.660;7.834;2023-08-08T00:56:21;7.63;;;4.40;;
3795;SDS011;1913;50.660;7.834;2023-08-08T00:58:48;4.77;;;3.93;;
3795;SDS011;1913;50.660;7.834;2023-08-08T01:01:15;3.77;;;3.10;;
3795;SDS011;1913;50.660;7.834;2023-08-08T01:03:42;8.10;;;3.40;;
3795;SDS011;1913;50.660;7.834;2023-08-08T01:06:13;9.13;;;3.70;;
3795;SDS011;1913;50.660;7.834;2023-08-08T01:09:01;8.73;;;4.10;;
3795;SDS011;1913;50.660;7.834;2023-08-08T01:11:36;10.13;;;4.23;;
3795;SDS011;1913;50.660;7.834;2023-08-08T01:14:02;5.20;;;3.73;;
3795;SDS011;1913;50.660;7.834;2023-08-08T01:16:31;6.93;;;3.30;;
3795;SDS011;1913;50.660;7.834;2023-08-08T01:18:57;4.67;;;3.30;;
3795;SDS011;1913;50.660;7.834;2023-08-08T01:21:24;8.20;;;3.50;;
3795;SDS011;1913;50.660;7.834;2023-08-08T01:23:53;6.20;;;3.80;;
3795;SDS011;1913;50.660;7.834;2023-08-08T01:26:25;8.00;;;4.10;;
3795;SDS011;1913;50.660;7.834;2023-08-08T01:28:54;5.80;;;4.03;;
3795;SDS011;1913;50.660;7.834;2023-08-08T01:31:20;5.43;;;3.63;;
3795;SDS011;1913;50.660;7.834;2023-08-08T01:33:46;17.27;;;3.80;;
3795;SDS011;1913;50.660;7.834;2023-08-08T01:36:22;5.20;;;3.80;;
3795;SDS011;1913;50.660;7.834;2023-08-08T01:38:52;7.13;;;3.30;;
3795;SDS011;1913;50.660;7.834;2023-08-08T01:41:24;9.53;;;4.10;;
3795;SDS011;1913;50.660;7.834;2023-08-08T01:43:50;8.13;;;3.50;;
3795;SDS011;1913;50.660;7.834;2023-08-08T01:46:17;7.40;;;4.00;;
3795;SDS011;1913;50.660;7.834;2023-08-08T01:48:46;5.43;;;3.50;;
3795;SDS011;1913;50.660;7.834;2023-08-08T01:51:14;6.10;;;3.70;;
3795;SDS011;1913;50.660;7.834;2023-08-08T01:53:39;7.70;;;3.93;;
3795;SDS011;1913;50.660;7.834;2023-08-08T01:56:04;9.00;;;3.60;;
3795;SDS011;1913;50.660;7.834;2023-08-08T01:58:30;6.80;;;3.43;;
3795;SDS011;1913;50.660;7.834;2023-08-08T02:00:55;8.80;;;3.80;;
3795;SDS011;1913;50.660;7.834;2023-08-08T02:03:20;6.37;;;4.07;;
3795;SDS011;1913;50.660;7.834;2023-08-08T02:05:46;5.80;;;3.33;;
3795;SDS011;1913;50.660;7.834;2023-08-08T02:08:11;5.30;;;4.13;;
3795;SDS011;1913;50.660;7.834;2023-08-08T02:10:37;9.77;;;3.70;;
3795;SDS011;1913;50.660;7.834;2023-08-08T02:13:03;5.50;;;3.63;;
3795;SDS011;1913;50.660;7.834;2023-08-08T02:15:29;7.60;;;4.03;;
3795;SDS011;1913;50.660;7.834;2023-08-08T02:17:54;8.23;;;3.90;;
3795;SDS011;1913;50.660;7.834;2023-08-08T02:20:19;5.20;;;3.30;;
3795;SDS011;1913;50.660;7.834;2023-08-08T02:22:45;5.70;;;3.80;;
3795;SDS011;1913;50.660;7.834;2023-08-08T02:25:10;7.17;;;3.97;;
3795;SDS011;1913;50.660;7.834;2023-08-08T02:27:36;8.07;;;4.30;;
3795;SDS011;1913;50.660;7.834;2023-08-08T02:30:01;5.80;;;4.10;;
3795;SDS011;1913;50.660;7.834;2023-08-08T02:32:27;12.10;;;3.87;;
3795;SDS011;1913;50.660;7.834;2023-08-08T02:34:53;7.57;;;4.03;;
3795;SDS011;1913;50.660;7.834;2023-08-08T02:37:18;5.50;;;3.70;;
3795;SDS011;1913;50.660;7.834;2023-08-08T02:39:43;4.20;;;3.60;;
3795;SDS011;1913;50.660;7.834;2023-08-08T02:42:09;5.80;;;3.67;;
3795;SDS011;1913;50.660;7.834;2023-08-08T02:44:34;4.77;;;4.23;;
3795;SDS011;1913;50.660;7.834;2023-08-08T02:47:00;5.60;;;3.60;;
3795;SDS011;1913;50.660;7.834;2023-08-08T02:49:25;11.80;;;3.60;;
3795;SDS011;1913;50.660;7.834;2023-08-08T02:51:51;4.80;;;3.57;;
3795;SDS011;1913;50.660;7.834;2023-08-08T02:54:16;8.10;;;4.00;;
3795;SDS011;1913;50.660;7.834;2023-08-08T02:56:41;7.20;;;4.30;;
3795;SDS011;1913;50.660;7.834;2023-08-08T02:59:07;5.63;;;3.93;;
3795;SDS011;1913;50.660;7.834;2023-08-08T03:01:32;7.00;;;4.00;;
3795;SDS011;1913;50.660;7.834;2023-08-08T03:03:57;7.10;;;3.90;;
3795;SDS011;1913;50.660;7.834;2023-08-08T03:06:23;9.13;;;4.00;;
3795;SDS011;1913;50.660;7.834;2023-08-08T03:08:48;7.80;;;3.40;;
3795;SDS011;1913;50.660;7.834;2023-08-08T03:11:14;8.10;;;4.40;;
3795;SDS011;1913;50.660;7.834;2023-08-08T03:13:39;6.07;;;3.77;;
3795;SDS011;1913;50.660;7.834;2023-08-08T03:16:04;7.10;;;3.90;;
3795;SDS011;1913;50.660;7.834;2023-08-08T03:18:30;6.50;;;4.20;;
3795;SDS011;1913;50.660;7.834;2023-08-08T03:20:55;4.93;;;3.47;;
3795;SDS011;1913;50.660;7.834;2023-08-08T03:23:20;8.00;;;4.00;;
3795;SDS011;1913;50.660;7.834;2023-08-08T03:25:48;11.63;;;3.90;;
3795;SDS011;1913;50.660;7.834;2023-08-08T03:28:13;7.63;;;4.20;;
3795;SDS011;1913;50.660;7.834;2023-08-08T03:30:39;5.50;;;4.47;;
3795;SDS011;1913;50.660;7.834;2023-08-08T03:33:04;7.70;;;4.40;;
3795;SDS011;1913;50.660;7.834;2023-08-08T03:35:30;4.70;;;3.63;;
3795;SDS011;1913;50.660;7.834;2023-08-08T03:37:55;5.50;;;4.10;;
3795;SDS011;1913;50.660;7.834;2023-08-08T03:40:21;9.33;;;4.50;;
3795;SDS011;1913;50.660;7.834;2023-08-08T03:42:46;9.23;;;4.50;;
3795;SDS011;1913;50.660;7.834;2023-08-08T03:45:12;9.87;;;4.20;;
3795;SDS011;1913;50.660;7.834;2023-08-08T03:47:37;5.57;;;4.27;;
3795;SDS011;1913;50.660;7.834;2023-08-08T03:50:03;6.13;;;3.70;;
3795;SDS011;1913;50.660;7.834;2023-08-08T03:52:29;8.30;;;4.47;;
3795;SDS011;1913;50.660;7.834;2023-08-08T03:54:55;6.60;;;4.40;;
3795;SDS011;1913;50.660;7.834;2023-08-08T03:57:20;7.67;;;4.93;;
3795;SDS011;1913;50.660;7.834;2023-08-08T03:59:45;6.40;;;4.77;;
3795;SDS011;1913;50.660;7.834;2023-08-08T04:02:11;9.00;;;5.50;;
3795;SDS011;1913;50.660;7.834;2023-08-08T04:04:36;7.60;;;4.30;;
3795;SDS011;1913;50.660;7.834;2023-08-08T04:07:03;8.00;;;5.63;;
3795;SDS011;1913;50.660;7.834;2023-08-08T04:09:29;7.47;;;5.40;;
3795;SDS011;1913;50.660;7.834;2023-08-08T04:11:54;8.80;;;4.90;;
3795;SDS011;1913;50.660;7.834;2023-08-08T04:14:20;8.13;;;4.43;;
3795;SDS011;1913;50.660;7.834;2023-08-08T04:16:45;6.80;;;4.60;;
3795;SDS011;1913;50.660;7.834;2023-08-08T04:19:10;9.87;;;5.33;;
3795;SDS011;1913;50.660;7.834;2023-08-08T04:21:36;5.50;;;4.57;;
3795;SDS011;1913;50.660;7.834;2023-08-08T04:24:01;6.00;;;4.50;;
3795;SDS011;1913;50.660;7.834;2023-08-08T04:26:27;7.77;;;5.17;;
3795;SDS011;1913;50.660;7.834;2023-08-08T04:28:52;6.13;;;4.40;;
3795;SDS011;1913;50.660;7.834;2023-08-08T04:31:18;7.07;;;4.30;;
3795;SDS011;1913;50.660;7.834;2023-08-08T04:33:43;6.07;;;4.13;;
3795;SDS011;1913;50.660;7.834;2023-08-08T04:36:09;7.40;;;4.50;;
3795;SDS011;1913;50.660;7.834;2023-08-08T04:38:34;8.00;;;4.33;;
3795;SDS011;1913;50.660;7.834;2023-08-08T04:40:59;5.80;;;4.37;;
3795;SDS011;1913;50.660;7.834;2023-08-08T04:43:25;6.47;;;4.47;;
3795;SDS011;1913;50.660;7.834;2023-08-08T04:45:52;7.13;;;4.40;;
3795;SDS011;1913;50.660;7.834;2023-08-08T04:48:18;6.67;;;4.10;;
3795;SDS011;1913;50.660;7.834;2023-08-08T04:50:43;7.00;;;4.43;;
3795;SDS011;1913;50.660;7.834;2023-08-08T04:53:10;6.10;;;3.97;;
3795;SDS011;1913;50.660;7.834;2023-08-08T04:55:36;5.53;;;4.07;;
3795;SDS011;1913;50.660;7.834;2023-08-08T04:58:01;7.07;;;3.43;;
3795;SDS011;1913;50.660;7.834;2023-08-08T05:00:26;7.30;;;3.80;;
3795;SDS011;1913;50.660;7.834;2023-08-08T05:02:52;8.50;;;3.60;;
3795;SDS011;1913;50.660;7.834;2023-08-08T05:05:18;7.70;;;3.50;;
3795;SDS011;1913;50.660;7.834;2023-08-08T05:07:43;4.53;;;3.40;;
3795;SDS011;1913;50.660;7.834;2023-08-08T05:10:08;4.50;;;3.20;;
3795;SDS011;1913;50.660;7.834;2023-08-08T05:12:34;5.83;;;2.90;;
3795;SDS011;1913;50.660;7.834;2023-08-08T05:14:59;4.53;;;2.80;;
3795;SDS011;1913;50.660;7.834;2023-08-08T05:17:25;3.43;;;2.47;;
3795;SDS011;1913;50.660;7.834;2023-08-08T05:19:50;6.40;;;2.57;;
3795;SDS011;1913;50.660;7.834;2023-08-08T05:22:16;6.67;;;3.13;;
3795;SDS011;1913;50.660;7.834;2023-08-08T05:24:41;9.53;;;2.77;;
3795;SDS011;1913;50.660;7.834;2023-08-08T05:27:06;3.53;;;2.30;;
3795;SDS011;1913;50.660;7.834;2023-08-08T05:29:32;4.07;;;2.80;;
3795;SDS011;1913;50.660;7.834;2023-08-08T05:31:57;6.23;;;2.77;;
3795;SDS011;1913;50.660;7.834;2023-08-08T05:34:25;4.40;;;2.50;;
3795;SDS011;1913;50.660;7.834;2023-08-08T05:36:51;3.40;;;2.67;;
3795;SDS011;1913;50.660;7.834;2023-08-08T05:39:16;4.53;;;2.37;;
3795;SDS011;1913;50.660;7.834;2023-08-08T05:41:41;5.93;;;2.50;;
3795;SDS011;1913;50.660;7.834;2023-08-08T05:44:07;2.93;;;2.30;;
3795;SDS011;1913;50.660;7.834;2023-08-08T05:46:32;3.37;;;2.00;;
3795;SDS011;1913;50.660;7.834;2023-08-08T05:48:57;2.63;;;2.00;;
3795;SDS011;1913;50.660;7.834;2023-08-08T05:51:23;2.90;;;2.13;;
3795;SDS011;1913;50.660;7.834;2023-08-08T05:53:48;4.63;;;2.40;;
3795;SDS011;1913;50.660;7.834;2023-08-08T05:56:14;4.20;;;2.20;;
3795;SDS011;1913;50.660;7.834;2023-08-08T05:58:39;8.80;;;2.33;;
3795;SDS011;1913;50.660;7.834;2023-08-08T06:01:04;7.00;;;2.40;;
3795;SDS011;1913;50.660;7.834;2023-08-08T06:03:34;4.50;;;2.30;;
3795;SDS011;1913;50.660;7.834;2023-08-08T06:05:59;3.37;;;2.20;;
3795;SDS011;1913;50.660;7.834;2023-08-08T06:08:24;4.27;;;1.93;;
3795;SDS011;1913;50.660;7.834;2023-08-08T06:10:50;2.80;;;2.13;;
3795;SDS011;1913;50.660;7.834;2023-08-08T06:13:15;3.07;;;1.97;;
3795;SDS011;1913;50.660;7.834;2023-08-08T06:15:41;6.87;;;2.40;;
3795;SDS011;1913;50.660;7.834;2023-08-08T06:18:06;9.03;;;3.00;;
3795;SDS011;1913;50.660;7.834;2023-08-08T06:20:31;3.33;;;2.27;;
3795;SDS011;1913;50.660;7.834;2023-08-08T06:22:57;1.93;;;1.70;;
3795;SDS011;1913;50.660;7.834;2023-08-08T06:25:22;4.63;;;2.80;;
3795;SDS011;1913;50.660;7.834;2023-08-08T06:27:47;4.70;;;2.07;;
3795;SDS011;1913;50.660;7.834;2023-08-08T06:30:13;5.30;;;2.60;;
3795;SDS011;1913;50.660;7.834;2023-08-08T06:32:39;5.30;;;2.00;;
3795;SDS011;1913;50.660;7.834;2023-08-08T06:35:04;6.63;;;3.03;;
3795;SDS011;1913;50.660;7.834;2023-08-08T06:37:30;7.27;;;2.60;;
3795;SDS011;1913;50.660;7.834;2023-08-08T06:39:55;5.37;;;2.20;;
3795;SDS011;1913;50.660;7.834;2023-08-08T06:42:20;7.33;;;2.27;;
3795;SDS011;1913;50.660;7.834;2023-08-08T06:44:46;3.70;;;2.30;;
3795;SDS011;1913;50.660;7.834;2023-08-08T06:47:11;5.33;;;2.30;;
3795;SDS011;1913;50.660;7.834;2023-08-08T06:49:37;2.60;;;2.03;;
3795;SDS011;1913;50.660;7.834;2023-08-08T06:52:03;9.23;;;2.60;;
3795;SDS011;1913;50.660;7.834;2023-08-08T06:54:30;7.57;;;2.83;;
3795;SDS011;1913;50.660;7.834;2023-08-08T06:56:56;4.17;;;2.30;;
3795;SDS011;1913;50.660;7.834;2023-08-08T06:59:22;4.13;;;2.27;;
3795;SDS011;1913;50.660;7.834;2023-08-08T07:01:48;4.47;;;2.43;;
3795;SDS011;1913;50.660;7.834;2023-08-08T07:04:14;4.57;;;2.57;;
3795;SDS011;1913;50.660;7.834;2023-08-08T07:06:40;5.20;;;3.00;;
3795;SDS011;1913;50.660;7.834;2023-08-08T07:09:05;4.17;;;2.47;;
3795;SDS011;1913;50.660;7.834;2023-08-08T07:11:31;6.47;;;2.67;;
3795;SDS011;1913;50.660;7.834;2023-08-08T07:13:56;4.03;;;2.60;;
3795;SDS011;1913;50.660;7.834;2023-08-08T07:16:22;7.27;;;2.50;;
3795;SDS011;1913;50.660;7.834;2023-08-08T07:18:47;5.00;;;2.83;;
3795;SDS011;1913;50.660;7.834;2023-08-08T07:21:12;5.40;;;2.70;;
3795;SDS011;1913;50.660;7.834;2023-08-08T07:23:38;7.77;;;3.20;;
3795;SDS011;1913;50.660;7.834;2023-08-08T07:26:03;6.97;;;3.00;;
3795;SDS011;1913;50.660;7.834;2023-08-08T07:28:28;7.53;;;2.80;;
3795;SDS011;1913;50.660;7.834;2023-08-08T07:30:54;9.33;;;2.93;;
3795;SDS011;1913;50.660;7.834;2023-08-08T07:33:19;4.33;;;2.80;;
3795;SDS011;1913;50.660;7.834;2023-08-08T07:35:44;6.73;;;2.90;;
3795;SDS011;1913;50.660;7.834;2023-08-08T07:38:10;5.70;;;3.30;;
3795;SDS011;1913;50.660;7.834;2023-08-08T07:40:36;6.07;;;2.97;;
3795;SDS011;1913;50.660;7.834;2023-08-08T07:43:01;3.83;;;2.77;;
3795;SDS011;1913;50.660;7.834;2023-08-08T07:45:27;4.07;;;2.80;;
3795;SDS011;1913;50.660;7.834;2023-08-08T07:47:52;4.20;;;2.93;;
3795;SDS011;1913;50.660;7.834;2023-08-08T07:50:18;4.80;;;2.60;;
3795;SDS011;1913;50.660;7.834;2023-08-08T07:52:43;7.60;;;3.50;;
3795;SDS011;1913;50.660;7.834;2023-08-08T07:55:09;5.70;;;2.77;;
3795;SDS011;1913;50.660;7.834;2023-08-08T07:57:34;7.80;;;2.73;;
3795;SDS011;1913;50.660;7.834;2023-08-08T08:00:00;4.97;;;3.00;;
3795;SDS011;1913;50.660;7.834;2023-08-08T08:02:34;7.53;;;2.87;;
3795;SDS011;1913;50.660;7.834;2023-08-08T08:04:59;9.50;;;3.13;;
3795;SDS011;1913;50.660;7.834;2023-08-08T08:07:24;7.33;;;2.90;;
3795;SDS011;1913;50.660;7.834;2023-08-08T08:09:50;9.30;;;2.90;;
3795;SDS011;1913;50.660;7.834;2023-08-08T08:12:15;4.40;;;2.50;;
3795;SDS011;1913;50.660;7.834;2023-08-08T08:14:41;7.80;;;3.20;;
3795;SDS011;1913;50.660;7.834;2023-08-08T08:17:06;5.60;;;2.80;;
3795;SDS011;1913;50.660;7.834;2023-08-08T08:19:32;5.80;;;2.77;;
3795;SDS011;1913;50.660;7.834;2023-08-08T08:21:57;6.40;;;2.60;;
3795;SDS011;1913;50.660;7.834;2023-08-08T08:24:22;6.80;;;2.83;;
3795;SDS011;1913;50.660;7.834;2023-08-08T08:26:48;9.73;;;2.80;;
3795;SDS011;1913;50.660;7.834;2023-08-08T08:29:13;5.00;;;2.70;;
3795;SDS011;1913;50.660;7.834;2023-08-08T08:31:39;4.87;;;3.40;;
3795;SDS011;1913;50.660;7.834;2023-08-08T08:34:04;8.43;;;3.13;;
3795;SDS011;1913;50.660;7.834;2023-08-08T08:36:30;5.70;;;2.77;;
3795;SDS011;1913;50.660;7.834;2023-08-08T08:38:55;6.90;;;2.70;;
3795;SDS011;1913;50.660;7.834;2023-08-08T08:41:21;6.90;;;3.10;;
3795;SDS011;1913;50.660;7.834;2023-08-08T08:43:50;11.90;;;2.90;;
3795;SDS011;1913;50.660;7.834;2023-08-08T08:46:17;7.03;;;2.97;;
3795;SDS011;1913;50.660;7.834;2023-08-08T08:48:47;10.23;;;3.47;;
3795;SDS011;1913;50.660;7.834;2023-08-08T08:51:14;8.40;;;3.13;;
3795;SDS011;1913;50.660;7.834;2023-08-08T08:53:41;7.90;;;2.77;;
3795;SDS011;1913;50.660;7.834;2023-08-08T08:56:12;3.90;;;2.20;;
3795;SDS011;1913;50.660;7.834;2023-08-08T08:58:42;7.87;;;3.13;;
3795;SDS011;1913;50.660;7.834;2023-08-08T09:01:07;4.27;;;2.50;;
3795;SDS011;1913;50.660;7.834;2023-08-08T09:03:34;7.60;;;2.97;;
3795;SDS011;1913;50.660;7.834;2023-08-08T09:05:59;10.10;;;2.53;;
3795;SDS011;1913;50.660;7.834;2023-08-08T09:08:26;6.10;;;2.40;;
3795;SDS011;1913;50.660;7.834;2023-08-08T09:10:51;5.27;;;2.57;;
3795;SDS011;1913;50.660;7.834;2023-08-08T09:13:17;4.10;;;2.63;;
3795;SDS011;1913;50.660;7.834;2023-08-08T09:15:42;5.70;;;2.70;;
3795;SDS011;1913;50.660;7.834;2023-08-08T09:18:08;5.13;;;2.53;;
3795;SDS011;1913;50.660;7.834;2023-08-08T09:20:33;14.00;;;2.90;;
3795;SDS011;1913;50.660;7.834;2023-08-08T09:22:59;3.97;;;2.70;;
3795;SDS011;1913;50.660;7.834;2023-08-08T09:25:25;8.17;;;2.87;;
3795;SDS011;1913;50.660;7.834;2023-08-08T09:27:51;6.23;;;2.77;;
3795;SDS011;1913;50.660;7.834;2023-08-08T09:30:20;4.57;;;2.20;;
3795;SDS011;1913;50.660;7.834;2023-08-08T09:32:46;6.93;;;2.90;;
3795;SDS011;1913;50.660;7.834;2023-08-08T09:35:11;4.10;;;2.60;;
3795;SDS011;1913;50.660;7.834;2023-08-08T09:37:37;3.77;;;2.20;;
3795;SDS011;1913;50.660;7.834;2023-08-08T09:40:04;4.07;;;2.73;;
3795;SDS011;1913;50.660;7.834;2023-08-08T09:42:32;3.97;;;2.50;;
3795;SDS011;1913;50.660;7.834;2023-08-08T09:44:59;4.23;;;2.50;;
3795;SDS011;1913;50.660;7.834;2023-08-08T09:47:25;6.27;;;2.83;;
3795;SDS011;1913;50.660;7.834;2023-08-08T09:49:57;3.03;;;2.40;;
3795;SDS011;1913;50.660;7.834;2023-08-08T09:52:29;8.70;;;2.50;;
3795;SDS011;1913;50.660;7.834;2023-08-08T09:54:54;3.90;;;2.50;;
3795;SDS011;1913;50.660;7.834;2023-08-08T09:57:21;4.40;;;2.60;;
3795;SDS011;1913;50.660;7.834;2023-08-08T09:59:47;6.43;;;2.37;;
3795;SDS011;1913;50.660;7.834;2023-08-08T10:02:14;6.40;;;3.07;;
3795;SDS011;1913;50.660;7.834;2023-08-08T10:04:40;6.10;;;2.20;;
3795;SDS011;1913;50.660;7.834;2023-08-08T10:07:06;5.00;;;2.40;;
3795;SDS011;1913;50.660;7.834;2023-08-08T10:09:32;3.80;;;2.20;;
3795;SDS011;1913;50.660;7.834;2023-08-08T10:11:58;5.83;;;2.20;;
3795;SDS011;1913;50.660;7.834;2023-08-08T10:14:30;5.13;;;2.63;;
3795;SDS011;1913;50.660;7.834;2023-08-08T10:16:56;5.03;;;2.00;;
3795;SDS011;1913;50.660;7.834;2023-08-08T10:19:22;4.70;;;2.60;;
3795;SDS011;1913;50.660;7.834;2023-08-08T10:21:48;2.43;;;2.10;;
3795;SDS011;1913;50.660;7.834;2023-08-08T10:24:22;4.40;;;2.20;;
3795;SDS011;1913;50.660;7.834;2023-08-08T10:26:51;3.33;;;2.20;;
3795;SDS011;1913;50.660;7.834;2023-08-08T10:29:18;5.20;;;2.30;;
3795;SDS011;1913;50.660;7.834;2023-08-08T10:31:52;4.97;;;2.00;;
3795;SDS011;1913;50.660;7.834;2023-08-08T10:34:19;3.93;;;2.20;;
3795;SDS011;1913;50.660;7.834;2023-08-08T10:36:49;4.27;;;2.10;;
3795;SDS011;1913;50.660;7.834;2023-08-08T10:39:17;3.77;;;1.97;;
3795;SDS011;1913;50.660;7.834;2023-08-08T10:41:46;5.10;;;2.10;;
3795;SDS011;1913;50.660;7.834;2023-08-08T10:44:13;2.50;;;1.87;;
3795;SDS011;1913;50.660;7.834;2023-08-08T10:46:46;3.60;;;2.00;;
3795;SDS011;1913;50.660;7.834;2023-08-08T10:49:11;3.67;;;2.00;;
3795;SDS011;1913;50.660;7.834;2023-08-08T10:51:38;4.67;;;1.90;;
3795;SDS011;1913;50.660;7.834;2023-08-08T10:54:14;3.60;;;1.70;;
3795;SDS011;1913;50.660;7.834;2023-08-08T10:56:53;9.20;;;3.07;;
3795;SDS011;1913;50.660;7.834;2023-08-08T10:59:21;4.07;;;1.73;;
3795;SDS011;1913;50.660;7.834;2023-08-08T11:01:49;2.73;;;1.63;;
3795;SDS011;1913;50.660;7.834;2023-08-08T11:04:18;3.10;;;2.00;;
3795;SDS011;1913;50.660;7.834;2023-08-08T11:06:44;6.10;;;2.10;;
3795;SDS011;1913;50.660;7.834;2023-08-08T11:09:10;9.07;;;1.90;;
3795;SDS011;1913;50.660;7.834;2023-08-08T11:11:36;4.77;;;2.00;;
3795;SDS011;1913;50.660;7.834;2023-08-08T11:14:17;3.47;;;2.03;;
3795;SDS011;1913;50.660;7.834;2023-08-08T11:16:44;4.30;;;1.90;;
3795;SDS011;1913;50.660;7.834;2023-08-08T11:19:10;2.43;;;2.07;;
3795;SDS011;1913;50.660;7.834;2023-08-08T11:21:40;3.77;;;1.93;;
3795;SDS011;1913;50.660;7.834;2023-08-08T11:24:07;3.97;;;2.40;;
3795;SDS011;1913;50.660;7.834;2023-08-08T11:26:34;5.03;;;2.07;;
3795;SDS011;1913;50.660;7.834;2023-08-08T11:29:00;5.40;;;2.10;;
3795;SDS011;1913;50.660;7.834;2023-08-08T11:31:28;4.70;;;1.90;;
3795;SDS011;1913;50.660;7.834;2023-08-08T11:33:54;5.70;;;2.00;;
3795;SDS011;1913;50.660;7.834;2023-08-08T11:36:21;3.53;;;2.00;;
3795;SDS011;1913;50.660;7.834;2023-08-08T11:38:47;5.37;;;2.20;;
3795;SDS011;1913;50.660;7.834;2023-08-08T11:41:15;2.97;;;1.87;;
3795;SDS011;1913;50.660;7.834;2023-08-08T11:43:41;4.60;;;2.40;;
3795;SDS011;1913;50.660;7.834;2023-08-08T11:46:09;2.67;;;2.20;;
3795;SDS011;1913;50.660;7.834;2023-08-08T11:48:37;5.00;;;2.07;;
3795;SDS011;1913;50.660;7.834;2023-08-08T11:51:05;2.70;;;1.87;;
3795;SDS011;1913;50.660;7.834;2023-08-08T11:53:32;5.03;;;2.07;;
3795;SDS011;1913;50.660;7.834;2023-08-08T11:55:59;8.00;;;2.07;;
3795;SDS011;1913;50.660;7.834;2023-08-08T11:58:25;3.53;;;1.90;;
3795;SDS011;1913;50.660;7.834;2023-08-08T12:00:51;3.93;;;2.40;;
3795;SDS011;1913;50.660;7.834;2023-08-08T12:03:17;2.07;;;1.87;;
3795;SDS011;1913;50.660;7.834;2023-08-08T12:05:47;4.93;;;2.00;;
3795;SDS011;1913;50.660;7.834;2023-08-08T12:08:22;6.87;;;2.10;;
3795;SDS011;1913;50.660;7.834;2023-08-08T12:10:49;7.60;;;2.10;;
3795;SDS011;1913;50.660;7.834;2023-08-08T12:13:21;4.87;;;1.97;;
3795;SDS011;1913;50.660;7.834;2023-08-08T12:15:47;3.93;;;1.97;;
3795;SDS011;1913;50.660;7.834;2023-08-08T12:18:16;5.23;;;2.47;;
3795;SDS011;1913;50.660;7.834;2023-08-08T12:20:43;6.87;;;2.27;;
3795;SDS011;1913;50.660;7.834;2023-08-08T12:23:08;3.53;;;1.97;;
3795;SDS011;1913;50.660;7.834;2023-08-08T12:25:34;3.73;;;2.00;;
3795;SDS011;1913;50.660;7.834;2023-08-08T12:28:01;6.03;;;2.20;;
3795;SDS011;1913;50.660;7.834;2023-08-08T12:30:27;4.10;;;2.23;;
3795;SDS011;1913;50.660;7.834;2023-08-08T12:32:52;5.13;;;2.27;;
3795;SDS011;1913;50.660;7.834;2023-08-08T12:35:18;5.97;;;2.13;;
3795;SDS011;1913;50.660;7.834;2023-08-08T12:37:45;4.83;;;2.17;;
3795;SDS011;1913;50.660;7.834;2023-08-08T12:40:11;6.43;;;2.37;;
3795;SDS011;1913;50.660;7.834;2023-08-08T12:42:37;4.70;;;2.50;;
3795;SDS011;1913;50.660;7.834;2023-08-08T12:45:02;5.63;;;2.20;;
3795;SDS011;1913;50.660;7.834;2023-08-08T12:47:28;5.17;;;2.23;;
3795;SDS011;1913;50.660;7.834;2023-08-08T12:49:54;6.63;;;1.90;;
3795;SDS011;1913;50.660;7.834;2023-08-08T12:52:19;4.13;;;1.80;;
3795;SDS011;1913;50.660;7.834;2023-08-08T12:54:45;9.23;;;2.23;;
3795;SDS011;1913;50.660;7.834;2023-08-08T12:57:10;6.53;;;2.33;;
3795;SDS011;1913;50.660;7.834;2023-08-08T12:59:36;6.73;;;2.57;;
3795;SDS011;1913;50.660;7.834;2023-08-08T13:02:02;4.97;;;2.20;;
3795;SDS011;1913;50.660;7.834;2023-08-08T13:04:27;3.57;;;1.60;;
3795;SDS011;1913;50.660;7.834;2023-08-08T13:06:53;4.10;;;2.33;;
3795;SDS011;1913;50.660;7.834;2023-08-08T13:09:18;7.40;;;2.20;;
3795;SDS011;1913;50.660;7.834;2023-08-08T13:11:44;4.13;;;2.20;;
3795;SDS011;1913;50.660;7.834;2023-08-08T13:14:10;6.47;;;2.17;;
3795;SDS011;1913;50.660;7.834;2023-08-08T13:16:36;5.50;;;2.33;;
3795;SDS011;1913;50.660;7.834;2023-08-08T13:19:01;5.70;;;2.10;;
3795;SDS011;1913;50.660;7.834;2023-08-08T13:21:28;3.87;;;2.30;;
3795;SDS011;1913;50.660;7.834;2023-08-08T13:23:53;5.57;;;2.10;;
3795;SDS011;1913;50.660;7.834;2023-08-08T13:26:19;7.30;;;2.37;;
3795;SDS011;1913;50.660;7.834;2023-08-08T13:28:44;9.60;;;2.23;;
3795;SDS011;1913;50.660;7.834;2023-08-08T13:31:10;5.20;;;2.20;;
3795;SDS011;1913;50.660;7.834;2023-08-08T13:33:35;5.73;;;2.40;;
3795;SDS011;1913;50.660;7.834;2023-08-08T13:36:01;4.43;;;1.97;;
3795;SDS011;1913;50.660;7.834;2023-08-08T13:38:26;7.87;;;1.93;;
3795;SDS011;1913;50.660;7.834;2023-08-08T13:40:52;5.60;;;2.43;;
3795;SDS011;1913;50.660;7.834;2023-08-08T13:43:18;5.43;;;2.10;;
3795;SDS011;1913;50.660;7.834;2023-08-08T13:45:44;7.73;;;2.20;;
3795;SDS011;1913;50.660;7.834;2023-08-08T13:48:09;5.80;;;1.90;;
3795;SDS011;1913;50.660;7.834;2023-08-08T13:50:35;9.10;;;2.47;;
3795;SDS011;1913;50.660;7.834;2023-08-08T13:53:00;6.87;;;2.50;;
3795;SDS011;1913;50.660;7.834;2023-08-08T13:55:26;5.67;;;2.50;;
3795;SDS011;1913;50.660;7.834;2023-08-08T13:57:52;9.27;;;2.37;;
3795;SDS011;1913;50.660;7.834;2023-08-08T14:00:19;8.63;;;2.33;;
3795;SDS011;1913;50.660;7.834;2023-08-08T14:02:45;4.30;;;2.00;;
3795;SDS011;1913;50.660;7.834;2023-08-08T14:05:11;4.00;;;1.90;;
3795;SDS011;1913;50.660;7.834;2023-08-08T14:07:36;8.87;;;3.03;;
3795;SDS011;1913;50.660;7.834;2023-08-08T14:10:02;7.50;;;2.80;;
3795;SDS011;1913;50.660;7.834;2023-08-08T14:12:29;6.00;;;2.20;;
3795;SDS011;1913;50.660;7.834;2023-08-08T14:14:55;6.03;;;2.20;;
3795;SDS011;1913;50.660;7.834;2023-08-08T14:17:20;5.00;;;2.20;;
3795;SDS011;1913;50.660;7.834;2023-08-08T14:19:46;4.50;;;2.30;;
3795;SDS011;1913;50.660;7.834;2023-08-08T14:22:11;4.30;;;2.27;;
3795;SDS011;1913;50.660;7.834;2023-08-08T14:24:37;7.70;;;2.47;;
3795;SDS011;1913;50.660;7.834;2023-08-08T14:27:02;4.90;;;2.30;;
3795;SDS011;1913;50.660;7.834;2023-08-08T14:29:28;5.07;;;2.60;;
3795;SDS011;1913;50.660;7.834;2023-08-08T14:31:53;7.77;;;2.40;;
3795;SDS011;1913;50.660;7.834;2023-08-08T14:34:19;6.00;;;2.13;;
3795;SDS011;1913;50.660;7.834;2023-08-08T14:36:53;8.03;;;2.90;;
3795;SDS011;1913;50.660;7.834;2023-08-08T14:39:18;3.93;;;2.10;;
3795;SDS011;1913;50.660;7.834;2023-08-08T14:41:44;5.43;;;2.37;;
3795;SDS011;1913;50.660;7.834;2023-08-08T14:44:09;5.63;;;2.07;;
3795;SDS011;1913;50.660;7.834;2023-08-08T14:46:34;5.90;;;2.33;;
3795;SDS011;1913;50.660;7.834;2023-08-08T14:49:00;5.70;;;2.30;;
3795;SDS011;1913;50.660;7.834;2023-08-08T14:51:25;5.93;;;2.33;;
3795;SDS011;1913;50.660;7.834;2023-08-08T14:53:51;5.67;;;1.90;;
3795;SDS011;1913;50.660;7.834;2023-08-08T14:56:16;4.80;;;2.20;;
3795;SDS011;1913;50.660;7.834;2023-08-08T14:58:41;7.07;;;2.23;;
3795;SDS011;1913;50.660;7.834;2023-08-08T15:01:07;4.80;;;2.37;;
3795;SDS011;1913;50.660;7.834;2023-08-08T15:03:32;4.03;;;2.07;;
3795;SDS011;1913;50.660;7.834;2023-08-08T15:05:58;6.07;;;2.20;;
3795;SDS011;1913;50.660;7.834;2023-08-08T15:08:23;7.17;;;2.13;;